createdAt,value
2018-06-13T00:01:38.504Z,86.30
2018-06-13T00:04:11.049Z,86.70
2018-06-13T00:06:41.805Z,86.40
2018-06-13T00:09:13.042Z,85.90
2018-06-13T00:11:44.876Z,85.60
2018-06-13T00:14:15.588Z,85.70
2018-06-13T00:16:46.040Z,86.60
2018-06-13T00:19:18.351Z,87.10
2018-06-13T00:21:49.516Z,87.30
2018-06-13T00:24:20.939Z,87.90
2018-06-13T00:26:51.936Z,88.20
2018-06-13T00:29:23.050Z,88.60
2018-06-13T00:31:53.578Z,89.50
2018-06-13T00:34:24.665Z,89.60
2018-06-13T00:36:55.541Z,89.40
2018-06-13T00:39:30.352Z,89.10
2018-06-13T00:42:05.519Z,88.80
2018-06-13T00:44:36.922Z,88.90
2018-06-13T00:47:08.106Z,89.20
2018-06-13T00:49:38.715Z,89.50
2018-06-13T00:52:10.195Z,89.40
2018-06-13T00:57:13.866Z,89.60
2018-06-13T00:59:49.549Z,89.50
2018-06-13T01:02:20.233Z,89.40
2018-06-13T01:04:51.717Z,89.40
2018-06-13T01:07:24.464Z,89.40
2018-06-13T01:09:55.202Z,89.10
2018-06-13T01:15:18.126Z,88.90
2018-06-13T01:17:49.090Z,88.80
2018-06-13T01:20:19.548Z,88.90
2018-06-13T01:22:50.272Z,88.70
2018-06-13T01:25:21.108Z,88.60
2018-06-13T01:27:52.374Z,88.60
2018-06-13T01:30:25.055Z,89.10
2018-06-13T01:32:55.676Z,88.70
2018-06-13T01:35:26.708Z,89.10
2018-06-13T01:37:59.718Z,88.70
2018-06-13T01:40:30.973Z,88.80
2018-06-13T01:43:02.057Z,88.80
2018-06-13T01:45:33.375Z,88.60
2018-06-13T01:48:03.963Z,89.20
2018-06-13T01:50:34.629Z,89.20
2018-06-13T01:53:05.640Z,88.80
2018-06-13T01:55:36.387Z,88.40
2018-06-13T01:58:06.560Z,87.60
2018-06-13T02:00:37.254Z,86.40
2018-06-13T02:03:08.144Z,86.40
2018-06-13T02:05:39.100Z,86.40
2018-06-13T02:08:09.183Z,86.10
2018-06-13T02:10:39.959Z,86.10
2018-06-13T02:13:10.217Z,85.40
2018-06-13T02:15:41.831Z,85.50
2018-06-13T02:18:12.685Z,85.70
2018-06-13T02:20:43.490Z,85.40
2018-06-13T02:23:14.635Z,85.40
2018-06-13T02:25:46.828Z,85.40
2018-06-13T02:28:17.753Z,85.30
2018-06-13T02:30:48.150Z,85.30
2018-06-13T02:33:18.959Z,85.40
2018-06-13T02:35:49.514Z,85.00
2018-06-13T02:38:22.739Z,85.30
2018-06-13T02:40:54.473Z,85.10
2018-06-13T02:43:25.226Z,85.30
2018-06-13T02:48:31.304Z,85.20
2018-06-13T02:51:03.012Z,85.10
2018-06-13T02:53:35.360Z,85.20
2018-06-13T02:58:35.985Z,84.50
2018-06-13T03:01:07.947Z,84.80
2018-06-13T03:03:38.892Z,84.30
2018-06-13T03:06:09.349Z,83.80
2018-06-13T03:08:43.035Z,83.70
2018-06-13T03:11:14.879Z,83.90
2018-06-13T03:13:48.352Z,83.70
2018-06-13T03:16:19.224Z,83.80
2018-06-13T03:18:49.829Z,83.70
2018-06-13T03:21:20.322Z,83.90
2018-06-13T03:23:51.902Z,84.00
2018-06-13T03:26:22.433Z,84.30
2018-06-13T03:28:53.485Z,84.30
2018-06-13T03:31:24.034Z,84.30
2018-06-13T03:33:54.984Z,84.90
2018-06-13T03:36:29.298Z,85.10
2018-06-13T03:38:59.726Z,85.60
2018-06-13T03:41:30.480Z,85.70
2018-06-13T03:44:01.597Z,85.60
2018-06-13T03:46:32.783Z,85.60
2018-06-13T03:49:03.131Z,85.60
2018-06-13T03:51:34.369Z,85.90
2018-06-13T03:54:05.430Z,85.70
2018-06-13T03:56:38.256Z,85.70
2018-06-13T03:59:09.294Z,85.60
2018-06-13T04:02:45.502Z,85.40
2018-06-13T04:05:17.054Z,85.40
2018-06-13T04:07:46.904Z,85.40
2018-06-13T04:10:26.956Z,85.30
2018-06-13T04:12:57.455Z,85.00
2018-06-13T04:15:27.435Z,85.00
2018-06-13T04:17:57.771Z,84.60
2018-06-13T04:20:40.478Z,84.30
2018-06-13T04:23:10.701Z,84.30
2018-06-13T04:25:41.807Z,84.40
2018-06-13T04:28:12.357Z,84.60
2018-06-13T04:30:43.238Z,84.50
2018-06-13T04:33:14.067Z,84.50
2018-06-13T04:35:44.661Z,84.30
2018-06-13T04:38:15.206Z,83.90
2018-06-13T04:40:45.858Z,83.80
2018-06-13T04:43:16.794Z,83.10
2018-06-13T04:45:47.083Z,83.00
2018-06-13T04:48:17.108Z,82.90
2018-06-13T04:50:47.683Z,82.10
2018-06-13T04:53:18.539Z,82.20
2018-06-13T04:55:48.904Z,82.30
2018-06-13T04:58:21.566Z,82.10
2018-06-13T05:00:53.574Z,81.70
2018-06-13T05:05:57.261Z,82.20
2018-06-13T05:08:28.701Z,82.20
2018-06-13T05:11:02.364Z,81.80
2018-06-13T05:13:33.960Z,82.00
2018-06-13T05:16:05.705Z,81.60
2018-06-13T05:18:36.606Z,81.90
2018-06-13T05:21:09.721Z,82.00
2018-06-13T05:23:43.541Z,82.20
2018-06-13T05:26:15.785Z,82.20
2018-06-13T05:28:49.499Z,82.60
2018-06-13T05:31:24.439Z,82.80
2018-06-13T05:33:59.242Z,83.10
2018-06-13T05:36:33.711Z,82.80
2018-06-13T05:39:08.582Z,82.40
2018-06-13T05:41:40.984Z,82.40
2018-06-13T05:44:15.423Z,82.10
2018-06-13T05:46:50.172Z,82.20
2018-06-13T05:49:25.065Z,81.80
2018-06-13T05:52:02.278Z,81.60
2018-06-13T05:54:34.248Z,81.70
2018-06-13T05:57:13.044Z,81.80
2018-06-13T05:59:47.072Z,81.10
2018-06-13T06:02:19.691Z,81.20
2018-06-13T06:04:53.673Z,81.20
2018-06-13T06:07:27.366Z,81.20
2018-06-13T06:09:59.763Z,80.90
2018-06-13T06:12:31.586Z,81.10
2018-06-13T06:17:59.198Z,81.00
2018-06-13T06:20:34.291Z,81.20
2018-06-13T06:23:07.639Z,81.30
2018-06-13T06:25:39.541Z,81.20
2018-06-13T06:28:12.425Z,80.60
2018-06-13T06:30:50.006Z,79.70
2018-06-13T06:33:23.402Z,79.50
2018-06-13T06:35:58.051Z,79.50
2018-06-13T06:38:31.301Z,78.70
2018-06-13T06:41:04.445Z,78.70
2018-06-13T06:43:39.813Z,78.90
2018-06-13T06:46:13.853Z,78.80
2018-06-13T06:48:45.518Z,79.20
2018-06-13T06:51:18.565Z,79.50
2018-06-13T06:53:52.643Z,79.80
2018-06-13T06:56:24.436Z,79.50
2018-06-13T06:58:57.054Z,79.70
2018-06-13T07:01:29.625Z,79.60
2018-06-13T07:04:01.555Z,79.40
2018-06-13T07:06:33.124Z,79.40
2018-06-13T07:09:08.268Z,79.80
2018-06-13T07:11:40.606Z,80.10
2018-06-13T07:14:15.830Z,80.50
2018-06-13T07:16:48.372Z,80.70
2018-06-13T07:19:27.363Z,79.90
2018-06-13T07:22:00.559Z,79.70
2018-06-13T07:24:34.457Z,79.40
2018-06-13T07:27:12.082Z,79.90
2018-06-13T07:29:44.687Z,79.60
2018-06-13T07:32:35.182Z,78.80
2018-06-13T07:35:10.974Z,78.60
2018-06-13T07:37:46.259Z,79.20
2018-06-13T07:40:20.506Z,79.40
2018-06-13T15:34:32.310Z,62.80
2018-06-13T15:37:02.580Z,62.00
2018-06-13T15:39:33.556Z,61.60
2018-06-13T15:42:03.908Z,62.40
2018-06-13T15:44:35.823Z,63.00
2018-06-13T15:47:05.625Z,62.10
2018-06-13T15:49:36.447Z,62.10
2018-06-13T15:52:06.638Z,61.90
2018-06-13T15:54:38.796Z,61.60
2018-06-13T15:57:08.790Z,61.20
2018-06-13T15:59:39.076Z,59.40
2018-06-13T16:02:09.385Z,57.40
2018-06-13T16:04:40.434Z,57.70
2018-06-13T16:07:11.852Z,57.90
2018-06-13T16:09:41.879Z,60.40
2018-06-13T16:12:12.067Z,61.30
2018-06-13T16:14:41.952Z,62.80
2018-06-13T16:17:12.425Z,63.80
2018-06-13T16:19:42.437Z,64.20
2018-06-13T16:22:12.715Z,64.10
2018-06-13T16:24:43.429Z,63.90
2018-06-13T16:27:13.744Z,64.30
2018-06-13T16:29:43.826Z,63.50
2018-06-13T16:32:14.556Z,64.30
2018-06-13T16:34:45.123Z,65.10
2018-06-13T16:37:15.045Z,65.50
2018-06-13T16:39:45.345Z,65.90
2018-06-13T16:42:15.609Z,66.30
2018-06-13T16:44:44.968Z,66.00
2018-06-13T16:47:14.997Z,65.40
2018-06-13T16:49:45.483Z,65.50
2018-06-13T16:52:26.074Z,65.70
2018-06-13T16:55:18.583Z,65.20
2018-06-13T16:57:50.494Z,64.90
2018-06-13T17:00:21.664Z,65.00
2018-06-13T17:02:52.501Z,65.00
2018-06-13T17:05:22.312Z,64.60
2018-06-13T17:07:56.772Z,64.80
2018-06-13T17:10:26.749Z,64.90
2018-06-13T17:12:56.940Z,65.30
2018-06-13T17:15:28.333Z,65.60
2018-06-13T17:17:58.983Z,66.10
2018-06-13T17:20:30.039Z,66.40
2018-06-13T17:23:07.725Z,67.00
2018-06-13T17:25:38.272Z,67.10
2018-06-13T17:28:10.177Z,67.50
2018-06-13T17:30:40.801Z,67.90
2018-06-13T17:33:12.125Z,68.20
2018-06-13T17:35:42.340Z,68.40
2018-06-13T17:38:12.564Z,68.20
2018-06-13T17:40:43.329Z,68.30
2018-06-13T17:43:15.462Z,68.20
2018-06-13T17:48:16.711Z,67.60
2018-06-13T17:50:47.196Z,67.30
2018-06-13T17:53:17.435Z,66.60
2018-06-13T17:55:47.409Z,65.40
2018-06-13T17:58:17.273Z,64.10
2018-06-13T18:00:47.500Z,63.30
2018-06-13T18:03:17.713Z,63.70
2018-06-13T18:05:48.416Z,64.10
2018-06-13T18:08:18.478Z,64.60
2018-06-13T18:10:49.505Z,65.00
2018-06-13T18:13:19.556Z,64.10
2018-06-13T18:15:52.416Z,64.50
2018-06-13T18:18:22.590Z,64.90
2018-06-13T18:20:52.064Z,65.30
2018-06-13T18:23:25.500Z,65.40
2018-06-13T18:25:55.350Z,65.50
2018-06-13T18:28:25.352Z,65.60
2018-06-13T18:31:05.021Z,66.10
2018-06-13T18:34:02.910Z,66.50
2018-06-13T18:36:32.895Z,66.70
2018-06-13T18:39:02.979Z,67.30
2018-06-13T18:41:34.040Z,67.20
2018-06-13T18:44:04.027Z,68.20
2018-06-13T18:46:33.770Z,68.70
2018-06-13T18:49:03.874Z,68.90
2018-06-13T18:51:33.832Z,68.90
2018-06-13T18:54:04.123Z,68.90
2018-06-13T18:59:09.262Z,69.40
2018-06-13T19:01:40.195Z,69.70
2018-06-13T19:04:10.605Z,70.00
2018-06-13T19:06:40.688Z,70.00
2018-06-13T19:09:12.585Z,70.30
2018-06-13T19:11:43.395Z,70.30
2018-06-13T19:14:13.136Z,70.50
2018-06-13T19:16:43.714Z,69.80
2018-06-13T19:19:15.744Z,70.40
2018-06-13T19:21:45.722Z,70.70
2018-06-13T19:24:22.909Z,71.10
2018-06-13T19:26:52.719Z,71.50
2018-06-13T19:29:23.237Z,71.80
2018-06-13T19:31:53.054Z,72.30
2018-06-13T19:34:26.202Z,72.80
2018-06-13T19:36:56.318Z,73.20
2018-06-13T19:39:30.154Z,73.80
2018-06-13T19:42:00.559Z,74.10
2018-06-13T19:44:30.326Z,74.60
2018-06-13T19:47:06.140Z,75.00
2018-06-13T19:49:35.627Z,75.30
2018-06-13T19:52:06.054Z,75.70
2018-06-13T19:54:41.437Z,76.20
2018-06-13T19:57:12.019Z,76.50
2018-06-13T19:59:43.002Z,77.00
2018-06-13T20:02:13.400Z,77.50
2018-06-13T20:04:53.563Z,77.80
2018-06-13T20:07:23.753Z,77.90
2018-06-13T20:09:58.840Z,78.50
2018-06-13T20:12:42.224Z,78.60
2018-06-13T20:15:18.416Z,79.20
2018-06-13T20:17:53.306Z,79.50
2018-06-13T20:20:23.727Z,80.10
2018-06-13T20:23:00.710Z,80.50
2018-06-13T20:25:35.553Z,80.70
2018-06-13T20:30:53.995Z,81.20
2018-06-13T20:33:23.935Z,81.50
2018-06-13T20:35:53.571Z,81.70
2018-06-13T20:38:23.757Z,81.70
2018-06-13T20:40:56.410Z,82.10
2018-06-13T20:43:26.816Z,82.10
2018-06-13T20:46:03.875Z,82.30
2018-06-13T20:48:34.760Z,83.10
2018-06-13T20:51:05.711Z,83.40
2018-06-13T20:53:36.422Z,84.30
2018-06-13T20:56:07.139Z,84.90
2018-06-13T20:58:37.884Z,84.90
2018-06-13T21:01:08.609Z,85.50
2018-06-13T21:03:40.386Z,86.30
2018-06-13T21:08:40.627Z,87.90
2018-06-13T21:11:11.069Z,88.90
2018-06-13T21:13:40.962Z,89.70
2018-06-13T21:16:12.214Z,90.30
2018-06-13T21:18:41.808Z,90.60
2018-06-13T21:21:13.051Z,90.60
2018-06-13T21:23:43.663Z,91.30
2018-06-13T21:26:14.866Z,91.60
2018-06-13T21:28:44.862Z,92.00
2018-06-13T21:31:16.349Z,92.50
2018-06-13T21:33:46.554Z,92.60
2018-06-13T21:36:16.643Z,92.80
2018-06-13T21:38:47.111Z,93.40
2018-06-13T21:41:17.711Z,93.40
2018-06-13T21:43:50.086Z,93.40
2018-06-13T21:46:20.898Z,93.80
2018-06-13T21:48:51.288Z,93.80
2018-06-13T21:51:23.030Z,94.00
2018-06-13T21:53:53.484Z,94.00
2018-06-13T21:56:26.159Z,94.20
2018-06-13T21:58:56.472Z,94.30
2018-06-13T22:01:27.838Z,94.60
2018-06-13T22:03:57.919Z,95.00
2018-06-13T22:06:28.330Z,95.30
2018-06-13T22:08:58.194Z,95.40
2018-06-13T22:11:28.416Z,95.60
2018-06-13T22:13:58.193Z,95.40
2018-06-13T22:16:29.957Z,95.60
2018-06-13T22:21:30.549Z,95.80
2018-06-13T22:24:00.930Z,96.30
2018-06-13T22:26:31.619Z,96.40
2018-06-13T22:29:02.636Z,96.30
2018-06-13T22:31:33.642Z,96.30
2018-06-13T22:34:05.436Z,96.70
2018-06-13T22:36:36.507Z,96.30
2018-06-13T22:39:12.582Z,96.50
2018-06-13T22:41:43.879Z,96.70
2018-06-13T22:44:14.804Z,96.80
2018-06-13T22:46:45.726Z,96.70
2018-06-13T22:49:17.764Z,96.60
2018-06-13T22:51:54.855Z,96.40
2018-06-13T22:54:25.738Z,96.60
2018-06-13T22:56:57.787Z,96.80
2018-06-13T22:59:29.126Z,97.20
2018-06-13T23:02:00.245Z,97.00
2018-06-13T23:04:31.760Z,97.20
2018-06-13T23:07:03.254Z,97.30
2018-06-13T23:09:34.336Z,97.20
2018-06-13T23:12:05.859Z,97.50
2018-06-13T23:14:37.289Z,97.50
2018-06-13T23:17:08.776Z,97.30
2018-06-13T23:19:39.796Z,97.20
2018-06-13T23:22:10.887Z,97.00
2018-06-13T23:24:42.490Z,96.90
2018-06-13T23:27:13.700Z,97.00
2018-06-13T23:29:44.790Z,97.60
2018-06-13T23:32:15.628Z,97.70
2018-06-13T23:34:46.801Z,97.90
2018-06-13T23:37:18.032Z,98.10
2018-06-13T23:39:49.298Z,98.00
2018-06-13T23:42:21.101Z,98.10
2018-06-13T23:44:52.624Z,98.20
2018-06-13T23:47:25.245Z,98.10
2018-06-13T23:49:56.735Z,97.80
2018-06-13T23:52:28.085Z,97.90
2018-06-13T23:54:59.177Z,97.90
2018-06-13T23:57:30.945Z,98.10
